createdAt,value
2019-05-12T00:00:50.017Z,5.93
2019-05-12T00:01:28.986Z,5.96
2019-05-12T00:02:28.967Z,5.92
2019-05-12T00:03:28.947Z,5.82
2019-05-12T00:04:28.925Z,5.78
2019-05-12T00:05:28.893Z,5.78
2019-05-12T00:06:49.881Z,5.77
2019-05-12T00:07:28.851Z,5.75
2019-05-12T00:08:28.832Z,5.70
2019-05-12T00:09:28.810Z,5.74
2019-05-12T00:10:28.784Z,5.66
2019-05-12T00:11:28.939Z,5.59
2019-05-12T00:12:49.738Z,5.55
2019-05-12T00:13:28.710Z,5.53
2019-05-12T00:14:28.685Z,5.50
2019-05-12T00:15:28.666Z,5.56
2019-05-12T00:16:28.649Z,5.56
2019-05-12T00:17:28.615Z,5.45
2019-05-12T00:18:49.593Z,5.43
2019-05-12T00:19:28.734Z,5.45
2019-05-12T00:20:28.678Z,5.45
2019-05-12T00:21:28.544Z,5.43
2019-05-12T00:22:28.757Z,5.45
2019-05-12T00:23:31.085Z,5.37
2019-05-12T00:24:49.460Z,5.35
2019-05-12T00:25:28.502Z,5.37
2019-05-12T00:26:28.454Z,5.34
2019-05-12T00:27:28.512Z,5.34
2019-05-12T00:28:28.526Z,5.25
2019-05-12T00:29:28.793Z,5.19
2019-05-12T00:30:49.316Z,5.25
2019-05-12T00:31:28.292Z,5.14
2019-05-12T00:32:28.297Z,5.19
2019-05-12T00:33:28.411Z,5.20
2019-05-12T00:34:28.876Z,5.09
2019-05-12T00:35:28.587Z,5.14
2019-05-12T00:36:49.205Z,5.16
2019-05-12T00:37:28.837Z,5.14
2019-05-12T00:38:28.125Z,5.05
2019-05-12T00:39:28.099Z,5.09
2019-05-12T00:40:28.171Z,5.07
2019-05-12T00:41:28.448Z,5.01
2019-05-12T00:42:49.029Z,4.96
2019-05-12T00:43:28.318Z,4.91
2019-05-12T00:44:28.532Z,4.91
2019-05-12T00:45:29.165Z,4.94
2019-05-12T00:46:28.017Z,4.94
2019-05-12T00:47:28.108Z,5.01
2019-05-12T00:48:48.890Z,4.96
2019-05-12T00:49:28.921Z,4.94
2019-05-12T00:50:28.825Z,4.92
2019-05-12T00:51:28.862Z,4.83
2019-05-12T00:52:28.186Z,4.77
2019-05-12T00:53:37.222Z,4.70
2019-05-12T00:54:48.746Z,4.72
2019-05-12T00:55:28.832Z,4.64
2019-05-12T00:56:28.374Z,4.61
2019-05-12T00:57:28.676Z,4.54
2019-05-12T00:58:27.905Z,4.61
2019-05-12T00:59:28.012Z,4.59
2019-05-12T01:00:48.602Z,4.64
2019-05-12T01:01:28.610Z,4.57
2019-05-12T01:02:28.686Z,4.54
2019-05-12T01:03:28.057Z,4.57
2019-05-12T01:04:29.199Z,4.57
2019-05-12T01:05:29.414Z,4.59
2019-05-12T01:06:49.053Z,4.69
2019-05-12T01:07:27.837Z,4.59
2019-05-12T01:08:27.997Z,4.58
2019-05-12T01:09:28.175Z,4.54
2019-05-12T01:10:28.653Z,4.64
2019-05-12T01:11:28.598Z,4.52
2019-05-12T01:12:48.602Z,4.54
2019-05-12T01:13:27.931Z,4.36
2019-05-12T01:14:27.868Z,4.24
2019-05-12T01:15:28.730Z,4.25
2019-05-12T01:16:28.819Z,4.26
2019-05-12T01:17:28.187Z,4.25
2019-05-12T01:18:48.174Z,4.28
2019-05-12T01:19:28.849Z,4.29
2019-05-12T01:20:28.400Z,4.25
2019-05-12T01:21:28.763Z,4.25
2019-05-12T01:22:27.746Z,4.10
2019-05-12T01:23:28.054Z,4.04
2019-05-12T01:24:48.379Z,4.12
2019-05-12T01:25:29.115Z,4.07
2019-05-12T01:26:28.440Z,4.10
2019-05-12T01:27:28.726Z,4.19
2019-05-12T01:28:27.831Z,4.40
2019-05-12T01:29:28.182Z,4.51
2019-05-12T01:30:48.033Z,4.54
2019-05-12T01:31:28.566Z,4.59
2019-05-12T01:32:28.735Z,4.62
2019-05-12T01:33:27.685Z,4.52
2019-05-12T01:34:27.810Z,4.55
2019-05-12T01:35:28.252Z,4.43
2019-05-12T01:36:48.317Z,4.47
2019-05-12T01:37:28.032Z,4.39
2019-05-12T01:38:28.781Z,4.32
2019-05-12T01:39:27.717Z,4.28
2019-05-12T01:40:28.518Z,4.18
2019-05-12T01:41:28.689Z,4.10
2019-05-12T01:42:48.401Z,3.96
2019-05-12T01:43:27.768Z,3.92
2019-05-12T01:44:28.603Z,3.96
2019-05-12T01:45:28.883Z,3.96
2019-05-12T01:46:28.741Z,3.94
2019-05-12T01:47:28.919Z,3.89
2019-05-12T01:48:48.373Z,3.90
2019-05-12T01:49:28.866Z,3.92
2019-05-12T01:50:28.296Z,3.89
2019-05-12T01:51:28.399Z,3.97
2019-05-12T01:52:28.405Z,4.01
2019-05-12T01:53:28.537Z,4.03
2019-05-12T01:54:48.317Z,4.04
2019-05-12T01:55:28.071Z,3.89
2019-05-12T01:56:28.300Z,3.92
2019-05-12T01:57:26.238Z,3.96
2019-05-12T01:58:27.817Z,3.94
2019-05-12T01:59:26.196Z,3.86
2019-05-12T02:00:48.282Z,3.75
2019-05-12T02:01:28.084Z,3.75
2019-05-12T02:02:28.425Z,3.86
2019-05-12T02:03:28.221Z,3.80
2019-05-12T02:04:28.181Z,3.71
2019-05-12T02:05:27.979Z,3.68
2019-05-12T02:06:48.581Z,3.65
2019-05-12T02:07:27.893Z,3.58
2019-05-12T02:08:27.865Z,3.57
2019-05-12T02:09:27.915Z,3.64
2019-05-12T02:10:28.297Z,3.47
2019-05-12T02:11:25.954Z,3.54
2019-05-12T02:12:48.902Z,3.47
2019-05-12T02:13:27.691Z,3.44
2019-05-12T02:14:27.594Z,3.47
2019-05-12T02:15:27.829Z,3.43
2019-05-12T02:16:28.072Z,3.43
2019-05-12T02:17:28.189Z,3.42
2019-05-12T02:18:48.896Z,3.43
2019-05-12T02:19:28.131Z,3.27
2019-05-12T02:20:25.683Z,3.25
2019-05-12T02:21:27.792Z,3.24
2019-05-12T02:22:27.842Z,3.20
2019-05-12T02:23:28.047Z,3.15
2019-05-12T02:24:47.865Z,3.24
2019-05-12T02:25:25.560Z,3.25
2019-05-12T02:26:25.538Z,3.21
2019-05-12T02:27:25.515Z,3.27
2019-05-12T02:28:25.499Z,3.24
2019-05-12T02:29:25.465Z,3.24
2019-05-12T02:30:49.938Z,3.30
2019-05-12T02:31:29.080Z,3.39
2019-05-12T02:32:35.601Z,3.31
2019-05-12T02:33:25.377Z,3.33
2019-05-12T02:34:25.630Z,3.30
2019-05-12T02:35:25.339Z,3.39
2019-05-12T02:36:46.304Z,3.39
2019-05-12T02:37:26.249Z,3.34
2019-05-12T02:38:25.362Z,3.40
2019-05-12T02:39:25.226Z,3.47
2019-05-12T02:40:25.585Z,3.57
2019-05-12T02:41:25.949Z,3.54
2019-05-12T02:42:46.669Z,3.62
2019-05-12T02:43:25.130Z,3.70
2019-05-12T02:44:25.112Z,3.78
2019-05-12T02:45:25.746Z,3.85
2019-05-12T02:46:25.758Z,3.76
2019-05-12T02:47:25.030Z,3.89
2019-05-12T02:48:46.010Z,3.82
2019-05-12T02:49:24.987Z,3.83
2019-05-12T02:50:24.958Z,3.94
2019-05-12T02:51:25.166Z,3.97
2019-05-12T02:52:25.298Z,4.06
2019-05-12T02:53:25.184Z,4.00
2019-05-12T02:54:54.677Z,4.16
2019-05-12T02:55:25.740Z,4.18
2019-05-12T02:56:25.894Z,4.21
2019-05-12T02:57:25.709Z,4.29
2019-05-12T02:58:25.488Z,4.36
2019-05-12T02:59:25.446Z,4.33
2019-05-12T03:00:45.865Z,4.44
2019-05-12T03:01:24.715Z,4.54
2019-05-12T03:02:24.809Z,4.52
2019-05-12T03:03:25.281Z,4.51
2019-05-12T03:04:24.888Z,4.55
2019-05-12T03:05:24.972Z,4.52
2019-05-12T03:06:45.574Z,4.54
2019-05-12T03:07:25.434Z,4.64
2019-05-12T03:08:25.678Z,4.69
2019-05-12T03:09:24.610Z,4.70
2019-05-12T03:10:25.287Z,4.75
2019-05-12T03:11:24.872Z,4.83
2019-05-12T03:12:45.435Z,4.84
2019-05-12T03:13:25.460Z,4.84
2019-05-12T03:14:25.251Z,4.95
2019-05-12T03:15:25.212Z,4.95
2019-05-12T03:16:25.644Z,4.98
2019-05-12T03:17:25.359Z,5.05
2019-05-12T03:18:45.303Z,5.12
2019-05-12T03:19:25.236Z,5.16
2019-05-12T03:20:24.383Z,5.19
2019-05-12T03:21:24.676Z,5.19
2019-05-12T03:22:25.254Z,5.22
2019-05-12T03:23:24.941Z,5.37
2019-05-12T03:24:45.149Z,5.38
2019-05-12T03:25:29.074Z,5.38
2019-05-12T03:26:24.868Z,5.53
2019-05-12T03:27:25.607Z,5.50
2019-05-12T03:28:25.510Z,5.60
2019-05-12T03:29:25.081Z,5.63
2019-05-12T03:30:48.237Z,5.56
2019-05-12T03:31:30.946Z,5.66
2019-05-12T03:32:27.446Z,5.66
2019-05-12T03:33:33.545Z,5.73
2019-05-12T03:34:29.010Z,5.74
2019-05-12T03:35:32.724Z,5.74
2019-05-12T03:36:50.652Z,5.78
2019-05-12T03:37:30.894Z,5.81
2019-05-12T03:38:24.808Z,5.92
2019-05-12T03:39:25.015Z,5.89
2019-05-12T03:40:24.958Z,5.89
2019-05-12T03:41:25.068Z,5.92
2019-05-12T03:42:44.733Z,5.95
2019-05-12T03:43:24.390Z,5.98
2019-05-12T03:44:25.214Z,6.06
2019-05-12T03:45:25.175Z,6.03
2019-05-12T03:46:24.800Z,6.00
2019-05-12T03:47:25.134Z,6.07
2019-05-12T03:48:45.545Z,6.06
2019-05-12T03:49:24.528Z,6.09
2019-05-12T03:50:24.479Z,6.16
2019-05-12T03:51:25.130Z,6.07
2019-05-12T03:52:24.391Z,6.18
2019-05-12T03:53:24.646Z,6.07
2019-05-12T03:54:45.191Z,6.18
2019-05-12T03:55:34.362Z,6.19
2019-05-12T03:56:25.988Z,6.16
2019-05-12T03:57:25.352Z,6.22
2019-05-12T03:58:25.539Z,6.19
2019-05-12T03:59:25.542Z,6.13
2019-05-12T04:00:44.858Z,6.18
2019-05-12T04:01:25.485Z,6.21
2019-05-12T04:02:25.065Z,6.29
2019-05-12T04:03:24.747Z,6.26
2019-05-12T04:04:24.398Z,6.30
2019-05-12T04:05:24.316Z,6.30
2019-05-12T04:06:45.300Z,6.32
2019-05-12T04:07:24.332Z,6.30
2019-05-12T04:08:24.604Z,6.36
2019-05-12T04:09:24.598Z,6.32
2019-05-12T04:10:24.769Z,6.33
2019-05-12T04:11:24.948Z,6.26
2019-05-12T04:12:44.988Z,6.32
2019-05-12T04:13:26.180Z,6.26
2019-05-12T04:14:25.280Z,6.30
2019-05-12T04:15:25.602Z,6.29
2019-05-12T04:16:24.702Z,6.30
2019-05-12T04:17:24.340Z,6.29
2019-05-12T04:18:45.084Z,6.30
2019-05-12T04:19:24.958Z,6.38
2019-05-12T04:20:25.442Z,6.28
2019-05-12T04:21:24.368Z,6.41
2019-05-12T04:22:24.895Z,6.35
2019-05-12T04:23:24.778Z,6.38
2019-05-12T04:24:44.534Z,6.29
2019-05-12T04:25:24.971Z,6.30
2019-05-12T04:26:25.358Z,6.32
2019-05-12T04:27:25.203Z,6.35
2019-05-12T04:28:24.597Z,6.25
2019-05-12T04:29:25.028Z,6.26
2019-05-12T04:30:44.511Z,6.30
2019-05-12T04:31:24.872Z,6.30
2019-05-12T04:32:24.942Z,6.28
2019-05-12T04:33:25.407Z,6.30
2019-05-12T04:34:25.082Z,6.35
2019-05-12T04:35:25.197Z,6.36
2019-05-12T04:36:44.991Z,6.38
2019-05-12T04:37:24.917Z,6.29
2019-05-12T04:38:24.876Z,6.36
2019-05-12T04:39:25.102Z,6.35
2019-05-12T04:40:24.752Z,6.35
2019-05-12T04:41:25.630Z,6.36
2019-05-12T04:42:45.223Z,6.41
2019-05-12T04:43:25.349Z,6.46
2019-05-12T04:44:25.090Z,6.44
2019-05-12T04:45:25.241Z,6.50
2019-05-12T04:46:25.130Z,6.47
2019-05-12T04:47:25.072Z,6.33
2019-05-12T04:48:45.347Z,6.41
2019-05-12T04:49:24.981Z,6.43
2019-05-12T04:50:24.512Z,6.35
2019-05-12T04:51:24.957Z,6.32
2019-05-12T04:52:24.868Z,6.33
2019-05-12T04:53:25.089Z,6.35
2019-05-12T04:54:44.450Z,6.29
2019-05-12T04:55:25.325Z,6.33
2019-05-12T04:56:24.862Z,6.33
2019-05-12T04:57:25.195Z,6.41
2019-05-12T04:58:25.290Z,6.35
2019-05-12T04:59:24.604Z,6.38
2019-05-12T05:00:44.779Z,6.40
2019-05-12T05:01:25.032Z,6.40
2019-05-12T05:02:25.009Z,6.32
2019-05-12T05:03:24.561Z,6.44
2019-05-12T05:04:24.451Z,6.40
2019-05-12T05:05:24.652Z,6.48
2019-05-12T05:06:44.835Z,6.44
2019-05-12T05:07:24.416Z,6.58
2019-05-12T05:08:24.252Z,6.59
2019-05-12T05:09:24.397Z,6.66
2019-05-12T05:10:24.726Z,6.66
2019-05-12T05:11:21.673Z,6.65
2019-05-12T05:12:44.965Z,6.61
2019-05-12T05:13:24.285Z,6.69
2019-05-12T05:14:24.545Z,6.68
2019-05-12T05:15:21.590Z,6.77
2019-05-12T05:16:24.627Z,6.72
2019-05-12T05:17:24.201Z,6.56
2019-05-12T05:18:43.919Z,6.71
2019-05-12T05:19:21.500Z,6.66
2019-05-12T05:20:23.802Z,6.72
2019-05-12T05:21:23.421Z,6.77
2019-05-12T05:22:21.427Z,6.77
2019-05-12T05:23:21.401Z,6.90
2019-05-12T05:24:44.363Z,6.91
2019-05-12T05:25:23.508Z,6.86
2019-05-12T05:26:27.641Z,6.98
2019-05-12T05:27:21.308Z,6.91
2019-05-12T05:28:23.513Z,6.94
2019-05-12T05:29:21.295Z,7.13
2019-05-12T05:30:44.077Z,7.13
2019-05-12T05:31:21.225Z,7.08
2019-05-12T05:32:23.178Z,7.20
2019-05-12T05:33:23.622Z,7.35
2019-05-12T05:34:23.418Z,7.29
2019-05-12T05:35:21.136Z,7.27
2019-05-12T05:36:43.344Z,7.29
2019-05-12T05:37:21.087Z,7.35
2019-05-12T05:38:21.062Z,7.41
2019-05-12T05:39:21.041Z,7.44
2019-05-12T05:40:28.383Z,7.38
2019-05-12T05:41:20.992Z,7.49
2019-05-12T05:42:43.963Z,7.40
2019-05-12T05:43:20.955Z,7.55
2019-05-12T05:44:20.932Z,7.59
2019-05-12T05:45:24.189Z,7.47
2019-05-12T05:46:20.885Z,7.60
2019-05-12T05:47:25.653Z,7.53
2019-05-12T05:48:43.927Z,7.58
2019-05-12T05:49:20.820Z,7.59
2019-05-12T05:50:24.858Z,7.60
2019-05-12T05:51:20.778Z,7.62
2019-05-12T05:52:26.552Z,7.62
2019-05-12T05:53:20.723Z,7.56
2019-05-12T05:54:43.881Z,7.60
2019-05-12T05:55:20.694Z,7.74
2019-05-12T05:56:20.665Z,7.75
2019-05-12T05:57:25.837Z,7.82
2019-05-12T05:58:20.641Z,7.82
2019-05-12T05:59:21.924Z,7.84
2019-05-12T06:00:43.450Z,7.82
2019-05-12T06:01:20.555Z,7.82
2019-05-12T06:02:25.391Z,7.75
2019-05-12T06:03:27.734Z,7.71
2019-05-12T06:04:20.495Z,7.78
2019-05-12T06:05:26.455Z,7.92
2019-05-12T06:06:42.708Z,8.02
2019-05-12T06:07:23.830Z,8.07
2019-05-12T06:08:21.000Z,8.17
2019-05-12T06:09:20.378Z,8.14
2019-05-12T06:10:20.365Z,8.20
2019-05-12T06:11:23.813Z,8.14
2019-05-12T06:12:48.644Z,8.20
2019-05-12T06:13:21.177Z,8.26
2019-05-12T06:14:20.276Z,8.39
2019-05-12T06:15:20.257Z,8.45
2019-05-12T06:16:22.054Z,8.26
2019-05-12T06:17:20.215Z,8.40
2019-05-12T06:18:43.740Z,8.50
2019-05-12T06:19:23.148Z,8.60
2019-05-12T06:20:20.148Z,8.50
2019-05-12T06:21:20.124Z,8.47
2019-05-12T06:22:20.102Z,8.28
2019-05-12T06:23:20.117Z,8.28
2019-05-12T06:24:41.086Z,8.17
2019-05-12T06:25:20.045Z,8.14
2019-05-12T06:26:21.125Z,8.04
2019-05-12T06:27:21.035Z,8.00
2019-05-12T06:28:19.983Z,8.04
2019-05-12T06:29:21.907Z,8.12
2019-05-12T06:30:47.095Z,8.11
2019-05-12T06:31:28.269Z,8.15
2019-05-12T06:32:19.891Z,8.07
2019-05-12T06:33:24.791Z,8.12
2019-05-12T06:34:21.064Z,8.07
2019-05-12T06:35:19.835Z,8.12
2019-05-12T06:36:40.809Z,8.11
2019-05-12T06:37:19.797Z,8.07
2019-05-12T06:38:19.770Z,8.10
2019-05-12T06:39:20.868Z,8.10
2019-05-12T06:40:19.730Z,8.22
2019-05-12T06:41:21.022Z,8.28
2019-05-12T06:42:40.694Z,8.26
2019-05-12T06:43:19.662Z,8.45
2019-05-12T06:44:19.833Z,8.48
2019-05-12T06:45:19.624Z,8.60
2019-05-12T06:46:21.160Z,8.60
2019-05-12T06:47:19.577Z,8.58
2019-05-12T06:48:42.361Z,8.62
2019-05-12T06:49:19.541Z,8.58
2019-05-12T06:50:19.519Z,8.65
2019-05-12T06:51:25.251Z,8.68
2019-05-12T06:52:19.477Z,8.69
2019-05-12T06:53:25.464Z,8.78
2019-05-12T06:54:44.615Z,8.58
2019-05-12T06:55:19.423Z,8.68
2019-05-12T06:56:19.957Z,8.76
2019-05-12T06:57:25.339Z,8.93
2019-05-12T06:58:25.950Z,8.97
2019-05-12T06:59:19.359Z,8.97
2019-05-12T07:00:40.314Z,8.84
2019-05-12T07:01:19.677Z,8.99
2019-05-12T07:02:19.286Z,9.12
2019-05-12T07:03:24.395Z,9.16
2019-05-12T07:04:21.344Z,9.12
2019-05-12T07:05:19.209Z,9.02
2019-05-12T07:06:40.190Z,9.05
2019-05-12T07:07:19.165Z,8.99
2019-05-12T07:08:26.292Z,9.06
2019-05-12T07:09:25.112Z,8.94
2019-05-12T07:10:35.622Z,8.91
2019-05-12T07:11:19.091Z,8.91
2019-05-12T07:12:56.000Z,8.83
2019-05-12T07:13:23.034Z,8.68
2019-05-12T07:14:22.854Z,8.72
2019-05-12T07:15:19.041Z,8.75
2019-05-12T07:16:22.867Z,8.60
2019-05-12T07:17:18.994Z,8.58
2019-05-12T07:18:39.953Z,8.65
2019-05-12T07:19:22.851Z,8.58
2019-05-12T07:20:18.906Z,8.53
2019-05-12T07:21:21.050Z,8.57
2019-05-12T07:22:22.522Z,8.55
2019-05-12T07:23:19.851Z,8.47
2019-05-12T07:24:41.094Z,8.47
2019-05-12T07:25:22.894Z,8.47
2019-05-12T07:26:19.627Z,8.47
2019-05-12T07:27:32.234Z,8.45
2019-05-12T07:28:18.743Z,8.40
2019-05-12T07:29:18.737Z,8.42
2019-05-12T07:30:39.705Z,8.36
2019-05-12T07:31:18.678Z,8.37
2019-05-12T07:32:21.700Z,8.30
2019-05-12T07:33:18.635Z,8.33
2019-05-12T07:34:18.615Z,8.47
2019-05-12T07:35:18.596Z,8.58
2019-05-12T07:36:39.585Z,8.55
2019-05-12T07:37:18.552Z,8.58
2019-05-12T07:38:21.459Z,8.68
2019-05-12T07:39:18.552Z,8.88
2019-05-12T07:40:19.056Z,8.88
2019-05-12T07:41:18.475Z,8.90
2019-05-12T07:42:39.758Z,8.97
2019-05-12T07:43:20.511Z,8.90
2019-05-12T07:44:18.415Z,9.01
2019-05-12T07:45:22.308Z,8.90
2019-05-12T07:46:18.372Z,8.84
2019-05-12T07:47:19.277Z,8.79
2019-05-12T07:48:40.415Z,8.81
2019-05-12T07:49:22.036Z,8.88
2019-05-12T07:50:20.656Z,8.91
2019-05-12T07:51:18.269Z,8.93
2019-05-12T07:52:18.244Z,8.90
2019-05-12T07:53:18.228Z,8.81
2019-05-12T07:54:39.545Z,8.90
2019-05-12T07:55:18.215Z,9.10
2019-05-12T07:56:22.914Z,9.15
2019-05-12T07:57:18.150Z,9.20
2019-05-12T07:58:19.390Z,9.38
2019-05-12T07:59:18.101Z,9.30
2019-05-12T08:00:39.078Z,9.38
2019-05-12T08:01:18.072Z,9.42
2019-05-12T08:02:23.256Z,9.49
2019-05-12T08:03:21.296Z,9.43
2019-05-12T08:04:18.018Z,9.49
2019-05-12T08:05:20.218Z,9.57
2019-05-12T08:06:41.821Z,9.43
2019-05-12T08:07:19.758Z,9.34
2019-05-12T08:08:17.928Z,9.35
2019-05-12T08:09:17.902Z,9.24
2019-05-12T08:10:19.952Z,9.18
2019-05-12T08:11:17.864Z,9.20
2019-05-12T08:12:38.852Z,9.16
2019-05-12T08:13:18.729Z,9.13
2019-05-12T08:14:25.828Z,9.21
2019-05-12T08:15:17.789Z,9.27
2019-05-12T08:16:19.485Z,9.24
2019-05-12T08:17:19.572Z,9.30
2019-05-12T08:18:40.923Z,9.46
2019-05-12T08:19:23.744Z,9.57
2019-05-12T08:20:17.690Z,9.60
2019-05-12T08:21:17.677Z,9.61
2019-05-12T08:22:18.865Z,9.86
2019-05-12T08:23:17.626Z,9.85
2019-05-12T08:24:42.986Z,9.97
2019-05-12T08:25:18.823Z,10.14
2019-05-12T08:26:18.621Z,10.30
2019-05-12T08:27:17.552Z,10.24
2019-05-12T08:28:19.246Z,10.09
2019-05-12T08:29:21.438Z,10.09
2019-05-12T08:30:47.468Z,9.96
2019-05-12T08:31:17.476Z,10.06
2019-05-12T08:32:20.034Z,9.85
2019-05-12T08:33:17.443Z,9.86
2019-05-12T08:34:17.423Z,9.89
2019-05-12T08:35:25.437Z,9.82
2019-05-12T08:36:38.378Z,9.81
2019-05-12T08:37:17.366Z,9.73
2019-05-12T08:38:17.349Z,9.52
2019-05-12T08:39:22.616Z,9.50
2019-05-12T08:40:17.307Z,9.40
2019-05-12T08:41:17.299Z,9.43
2019-05-12T08:42:38.288Z,9.63
2019-05-12T08:43:17.251Z,9.73
2019-05-12T08:44:17.683Z,9.82
2019-05-12T08:45:25.702Z,9.81
2019-05-12T08:46:17.193Z,9.91
2019-05-12T08:47:17.170Z,9.76
2019-05-12T08:48:38.167Z,9.78
2019-05-12T08:49:17.150Z,9.96
2019-05-12T08:50:17.123Z,9.93
2019-05-12T08:51:20.070Z,9.89
2019-05-12T08:52:17.085Z,9.79
2019-05-12T08:53:20.695Z,9.88
2019-05-12T08:54:39.674Z,9.88
2019-05-12T08:55:17.078Z,9.73
2019-05-12T08:56:19.317Z,9.70
2019-05-12T08:57:16.989Z,9.81
2019-05-12T08:58:30.307Z,9.73
2019-05-12T08:59:18.450Z,9.75
2019-05-12T09:00:39.535Z,9.73
2019-05-12T09:01:20.468Z,9.56
2019-05-12T09:02:16.916Z,9.50
2019-05-12T09:03:20.389Z,9.58
2019-05-12T09:04:18.379Z,9.68
2019-05-12T09:05:16.840Z,9.78
2019-05-12T09:06:37.823Z,9.75
2019-05-12T09:07:16.906Z,9.64
2019-05-12T09:08:16.782Z,9.67
2019-05-12T09:09:16.765Z,9.58
2019-05-12T09:10:16.743Z,9.67
2019-05-12T09:11:16.724Z,9.79
2019-05-12T09:12:37.705Z,9.81
2019-05-12T09:13:16.695Z,9.82
2019-05-12T09:14:16.657Z,10.03
2019-05-12T09:15:16.642Z,10.09
2019-05-12T09:16:16.625Z,10.18
2019-05-12T09:17:16.618Z,10.22
2019-05-12T09:18:39.391Z,10.24
2019-05-12T09:19:23.556Z,10.28
2019-05-12T09:20:16.555Z,10.39
2019-05-12T09:21:16.539Z,10.24
2019-05-12T09:22:20.697Z,10.55
2019-05-12T09:23:16.500Z,10.44
2019-05-12T09:24:37.483Z,10.55
2019-05-12T09:25:16.462Z,10.70
2019-05-12T09:26:18.565Z,10.76
2019-05-12T09:27:16.426Z,10.60
2019-05-12T09:28:16.407Z,10.77
2019-05-12T09:29:16.410Z,10.88
2019-05-12T09:30:39.968Z,10.83
2019-05-12T09:31:19.583Z,11.16
2019-05-12T09:32:16.341Z,11.21
2019-05-12T09:33:16.459Z,11.83
2019-05-12T09:34:16.636Z,12.02
2019-05-12T09:35:16.284Z,12.31
2019-05-12T09:36:37.298Z,12.29
2019-05-12T09:37:16.268Z,12.26
2019-05-12T09:38:21.295Z,12.26
2019-05-12T09:39:16.217Z,12.64
2019-05-12T09:40:20.603Z,12.63
2019-05-12T09:41:16.189Z,12.41
2019-05-12T09:42:37.180Z,12.96
2019-05-12T09:43:16.147Z,13.94
2019-05-12T09:44:20.281Z,13.84
2019-05-12T09:45:16.124Z,12.96
2019-05-12T09:46:16.100Z,12.29
2019-05-12T09:47:23.018Z,12.05
2019-05-12T09:48:39.188Z,12.62
2019-05-12T09:49:16.051Z,12.63
2019-05-12T09:50:20.112Z,12.74
2019-05-12T09:51:17.278Z,13.43
2019-05-12T09:52:22.715Z,13.84
2019-05-12T09:53:15.991Z,13.67
2019-05-12T09:54:40.901Z,13.98
2019-05-12T09:55:15.963Z,14.35
2019-05-12T09:56:15.944Z,14.87
2019-05-12T09:57:15.922Z,15.03
2019-05-12T09:58:22.927Z,15.27
2019-05-12T09:59:21.491Z,15.28
2019-05-12T10:00:37.784Z,15.13
2019-05-12T10:01:15.921Z,15.56
2019-05-12T10:02:20.595Z,15.99
2019-05-12T10:03:15.832Z,16.04
2019-05-12T10:04:19.473Z,16.20
2019-05-12T10:05:15.796Z,15.68
2019-05-12T10:06:36.791Z,15.52
2019-05-12T10:07:15.819Z,14.71
2019-05-12T10:08:15.750Z,13.99
2019-05-12T10:09:19.921Z,13.37
2019-05-12T10:10:15.727Z,12.92
2019-05-12T10:11:19.489Z,12.93
2019-05-12T10:12:45.031Z,12.99
2019-05-12T10:13:20.224Z,12.85
2019-05-12T10:14:15.702Z,13.52
2019-05-12T10:15:18.626Z,13.87
2019-05-12T10:16:15.650Z,13.62
2019-05-12T10:17:20.333Z,14.09
2019-05-12T10:18:36.615Z,14.74
2019-05-12T10:19:15.599Z,15.56
2019-05-12T10:20:15.580Z,15.68
2019-05-12T10:21:17.494Z,14.83
2019-05-12T10:22:15.551Z,14.42
2019-05-12T10:23:18.889Z,14.17
2019-05-12T10:24:41.395Z,13.83
2019-05-12T10:25:15.506Z,13.54
2019-05-12T10:26:15.490Z,13.21
2019-05-12T10:27:15.481Z,13.03
2019-05-12T10:28:16.314Z,13.17
2019-05-12T10:29:20.412Z,13.22
2019-05-12T10:30:36.461Z,13.67
2019-05-12T10:31:18.457Z,14.39
2019-05-12T10:32:15.413Z,15.03
2019-05-12T10:33:15.391Z,15.70
2019-05-12T10:34:15.379Z,16.11
2019-05-12T10:35:21.064Z,16.44
2019-05-12T10:36:39.050Z,16.75
2019-05-12T10:37:19.260Z,16.40
2019-05-12T10:38:15.326Z,15.64
2019-05-12T10:39:15.319Z,15.09
2019-05-12T10:40:15.297Z,14.84
2019-05-12T10:41:15.297Z,14.74
2019-05-12T10:42:39.889Z,14.95
2019-05-12T10:43:15.271Z,14.39
2019-05-12T10:44:15.255Z,14.17
2019-05-12T10:45:16.939Z,13.81
2019-05-12T10:46:18.503Z,13.76
2019-05-12T10:47:15.223Z,13.55
2019-05-12T10:48:36.210Z,13.74
2019-05-12T10:49:15.197Z,14.37
2019-05-12T10:50:15.212Z,15.11
2019-05-12T10:51:15.179Z,15.35
2019-05-12T10:52:15.154Z,15.82
2019-05-12T10:53:15.942Z,15.59
2019-05-12T10:54:36.139Z,15.13
2019-05-12T10:55:15.125Z,14.75
2019-05-12T10:56:15.114Z,14.42
2019-05-12T10:57:15.106Z,14.81
2019-05-12T10:58:15.089Z,15.06
2019-05-12T10:59:29.144Z,14.44
2019-05-12T11:00:36.065Z,14.20
2019-05-12T11:01:15.051Z,14.31
2019-05-12T11:02:15.076Z,14.14
2019-05-12T11:03:15.641Z,14.42
2019-05-12T11:04:15.024Z,14.13
2019-05-12T11:05:21.097Z,14.88
2019-05-12T11:06:39.700Z,15.67
2019-05-12T11:07:14.994Z,16.14
2019-05-12T11:08:14.986Z,16.30
2019-05-12T11:09:14.971Z,16.33
2019-05-12T11:10:19.668Z,16.60
2019-05-12T11:11:15.132Z,16.01
2019-05-12T11:12:35.944Z,15.39
2019-05-12T11:13:17.580Z,14.67
2019-05-12T11:14:14.922Z,14.68
2019-05-12T11:15:14.919Z,15.11
2019-05-12T11:16:16.920Z,15.82
2019-05-12T11:17:14.897Z,16.52
2019-05-12T11:18:35.893Z,16.42
2019-05-12T11:19:14.880Z,16.09
2019-05-12T11:20:14.884Z,16.04
2019-05-12T11:21:15.484Z,16.20
2019-05-12T11:22:14.855Z,16.26
2019-05-12T11:23:14.848Z,16.50
2019-05-12T11:24:35.870Z,16.42
2019-05-12T11:25:14.835Z,15.43
2019-05-12T11:26:14.826Z,15.41
2019-05-12T11:27:14.817Z,15.21
2019-05-12T11:28:14.813Z,14.90
2019-05-12T11:29:14.808Z,15.27
2019-05-12T11:30:35.806Z,15.72
2019-05-12T11:31:14.790Z,16.03
2019-05-12T11:32:17.514Z,16.65
2019-05-12T11:33:14.772Z,16.74
2019-05-12T11:34:14.771Z,16.41
2019-05-12T11:35:14.792Z,15.79
2019-05-12T11:36:35.765Z,15.89
2019-05-12T11:37:14.745Z,15.86
2019-05-12T11:38:14.742Z,15.75
2019-05-12T11:39:14.736Z,16.27
2019-05-12T11:40:14.750Z,16.33
2019-05-12T11:41:16.207Z,16.26
2019-05-12T11:42:35.803Z,16.40
2019-05-12T11:43:14.717Z,16.52
2019-05-12T11:44:14.707Z,16.85
2019-05-12T11:45:14.701Z,17.11
2019-05-12T11:46:14.693Z,16.60
2019-05-12T11:47:23.930Z,16.38
2019-05-12T11:48:40.368Z,15.93
2019-05-12T11:49:14.683Z,15.74
2019-05-12T11:50:14.688Z,15.92
2019-05-12T11:51:14.669Z,15.30
2019-05-12T11:52:18.929Z,15.63
2019-05-12T11:53:14.659Z,15.57
2019-05-12T11:54:35.659Z,15.81
2019-05-12T11:55:14.643Z,16.00
2019-05-12T11:56:14.636Z,16.37
2019-05-12T11:57:14.630Z,16.60
2019-05-12T11:58:14.635Z,16.40
2019-05-12T11:59:14.624Z,16.78
2019-05-12T12:00:35.621Z,17.13
2019-05-12T12:01:14.614Z,16.48
2019-05-12T12:02:14.630Z,16.74
2019-05-12T12:03:17.865Z,16.52
2019-05-12T12:04:14.597Z,16.04
2019-05-12T12:05:14.588Z,16.33
2019-05-12T12:06:35.595Z,16.71
2019-05-12T12:07:14.587Z,17.11
2019-05-12T12:08:14.655Z,17.14
2019-05-12T12:09:18.475Z,17.33
2019-05-12T12:10:14.577Z,16.99
2019-05-12T12:11:18.590Z,17.32
2019-05-12T12:12:39.561Z,17.30
2019-05-12T12:13:19.277Z,17.04
2019-05-12T12:14:14.549Z,17.04
2019-05-12T12:15:14.549Z,16.99
2019-05-12T12:16:14.551Z,17.14
2019-05-12T12:17:14.534Z,16.99
2019-05-12T12:18:35.542Z,17.03
2019-05-12T12:19:14.536Z,17.53
2019-05-12T12:20:22.059Z,17.54
2019-05-12T12:21:14.523Z,17.51
2019-05-12T12:22:14.711Z,17.53
2019-05-12T12:23:14.520Z,17.55
2019-05-12T12:24:38.181Z,17.59
2019-05-12T12:25:15.579Z,17.54
2019-05-12T12:26:14.514Z,17.50
2019-05-12T12:27:14.510Z,17.29
2019-05-12T12:28:14.504Z,17.66
2019-05-12T12:29:14.517Z,17.73
2019-05-12T12:30:35.513Z,18.04
2019-05-12T12:31:14.504Z,18.28
2019-05-12T12:32:16.900Z,17.91
2019-05-12T12:33:14.515Z,18.04
2019-05-12T12:34:15.495Z,18.22
2019-05-12T12:35:15.037Z,18.13
2019-05-12T12:36:35.494Z,17.74
2019-05-12T12:37:18.989Z,17.13
2019-05-12T12:38:14.478Z,17.28
2019-05-12T12:39:14.473Z,17.53
2019-05-12T12:40:14.542Z,17.84
2019-05-12T12:41:14.494Z,17.41
2019-05-12T12:42:38.510Z,17.32
2019-05-12T12:43:14.466Z,17.48
2019-05-12T12:44:14.465Z,17.69
2019-05-12T12:45:14.456Z,17.88
2019-05-12T12:46:17.715Z,17.91
2019-05-12T12:47:14.453Z,17.91
2019-05-12T12:48:35.459Z,18.03
2019-05-12T12:49:14.453Z,17.91
2019-05-12T12:50:14.447Z,17.94
2019-05-12T12:51:17.280Z,18.04
2019-05-12T12:52:14.448Z,17.89
2019-05-12T12:53:14.443Z,18.00
2019-05-12T12:54:35.437Z,18.29
2019-05-12T12:55:14.430Z,18.31
2019-05-12T12:56:16.131Z,18.42
2019-05-12T12:57:14.427Z,18.13
2019-05-12T12:58:14.428Z,18.31
2019-05-12T12:59:14.719Z,18.52
2019-05-12T13:00:46.603Z,18.67
2019-05-12T13:01:22.219Z,18.31
2019-05-12T13:02:14.429Z,17.99
2019-05-12T13:03:14.619Z,17.70
2019-05-12T13:04:14.408Z,17.89
2019-05-12T13:05:14.408Z,18.03
2019-05-12T13:06:35.415Z,18.34
2019-05-12T13:07:14.405Z,18.28
2019-05-12T13:08:14.395Z,18.13
2019-05-12T13:09:24.272Z,18.37
2019-05-12T13:10:14.510Z,18.57